x

Whitefish Point, Mi (wfpm4) Weather Station

8:40am - Sat 21st Oct 2017 All times are CDT. -5 hours from GMT.

  • Wind
    15mph, 18mph gusts
  • Air Temp 59°f
  • Sea Pressure 1015.6mb
  • Whitefish Point, Mi
  • Whitefish Point, Mi

More Historic Weather Station data

Upgrade to MSW Pro to gain access to the past 30 days of data for over 8000 Wavebouys and Weather Stations around the globe.

Join

Comparision Forecast

View Surf forecast
   
Sat 10/21 8:40am 15 18 mph 1015.6mb 59f
8:30am 13 16 mph 1014.9mb 59f
8:20am 14 17 mph 1015.6mb 59f
8:10am 13 16 mph 1015.9mb 59f
8:00am 14 17 mph 1015.6mb 59f
7:40am 15 16 mph 1015.6mb 59f
7:30am 15 16 mph 1015.9mb 59f
7:20am 14 16 mph 1015.2mb 59f
7:10am 13 18 mph 1014.9mb 59f
7:00am 15 18 mph 1015.2mb 58f
6:40am 16 17 mph 1014.9mb 58f
6:30am 14 18 mph 1014.9mb 59f
6:20am 15 17 mph 1015.6mb 59f
6:10am 11 15 mph 1015.2mb 59f
6:00am 11 15 mph 1014.6mb 59f
5:40am 11 14 mph 1015.2mb 59f
5:30am 10 15 mph 1014.9mb 59f
5:20am 10 14 mph 1014.6mb 59f
5:10am 10 15 mph 1014.9mb 59f
5:00am 11 14 mph 1015.2mb 59f
4:40am 14 16 mph 1014.6mb 59f
4:30am 10 13 mph 1014.9mb 58f
4:20am 9 11 mph 1015.2mb 58f
4:10am 9 11 mph 1014.6mb 58f
4:00am 10 13 mph 1014.6mb 59f
3:40am 10 13 mph 1015.2mb 59f
3:30am 9 13 mph 1014.6mb 59f
3:20am 10 13 mph 1014.9mb 59f
3:10am 11 14 mph 1015.2mb 59f
3:00am 11 14 mph 1015.2mb 59f
2:40am 14 16 mph 1014.9mb 59f
2:30am 13 15 mph 1015.2mb 59f
2:20am 6 10 mph 1014.9mb 58f
2:10am 8 10 mph 1014.6mb 59f
2:00am 8 10 mph 1014.9mb 59f
1:40am 7 10 mph 1014.9mb 60f
1:30am 8 10 mph 1014.2mb 60f
1:20am 9 11 mph 1014.2mb 60f
1:10am 8 14 mph 1014.9mb 60f
1:00am 10 14 mph 1014.9mb 60f
12:40am 11 16 mph 1014.2mb 61f
12:30am 9 13 mph 1014.6mb 60f
12:20am 9 14 mph 1014.6mb 59f
12:10am 8 15 mph 1014.2mb 59f
12:00am 11 16 mph 1013.9mb 60f
Fri 10/20 11:40pm 14 17 mph 1014.2mb 59f
11:30pm 14 22 mph 1013.9mb 60f
11:20pm 13 18 mph 1013.5mb 59f
11:10pm 13 18 mph 1013.5mb 59f
11:00pm 15 18 mph 1014.2mb 59f
10:40pm 11 17 mph 1013.5mb 59f
10:30pm 11 18 mph 1013.2mb 59f
10:20pm 14 18 mph 1013.5mb 60f
10:10pm 14 18 mph 1014.2mb 60f
10:00pm 14 20 mph 1014.2mb 61f
9:40pm 11 22 mph 1013.2mb 61f
9:30pm 14 20 mph 1013.2mb 61f
9:20pm 14 18 mph 1013.9mb 60f
9:10pm 14 20 mph 1013.5mb 61f
9:00pm 14 18 mph 1013.5mb 60f
8:40pm 15 21 mph 1012.5mb 61f
8:30pm 14 21 mph 1013.2mb 61f
8:20pm 14 22 mph 1013.2mb 62f
8:10pm 16 22 mph 1013.2mb 62f
8:00pm 13 21 mph 1012.9mb 62f
7:40pm 16 22 mph 1012.5mb 61f
7:30pm 16 23 mph 1012.5mb 61f
7:20pm 14 18 mph 1012.9mb 60f
7:10pm 14 21 mph 1013.2mb 61f
7:00pm 16 20 mph 1012.9mb 61f
6:40pm 17 20 mph 1012.5mb 61f
5:40pm 15 17 mph 1013.2mb 61f
5:30pm 14 16 mph 1013.2mb 61f
5:20pm 15 17 mph 1013.2mb 60f
5:10pm 13 16 mph 1013.5mb 60f
5:00pm 13 15 mph 1013.5mb 61f
4:40pm 16 18 mph 1013.5mb 62f
4:30pm 14 17 mph 1013.5mb 62f
4:20pm 11 16 mph 1013.5mb 61f
4:10pm 14 17 mph 1012.9mb 62f
4:00pm 14 16 mph 1012.9mb 61f
3:40pm 16 18 mph 1013.5mb 62f
3:30pm 15 18 mph 1013.9mb 62f
3:20pm 17 20 mph 1013.2mb 63f
3:10pm 16 18 mph 1013.2mb 63f
3:00pm 17 20 mph 1013.9mb 63f
2:40pm 18 21 mph 1013.2mb 63f
2:30pm 18 21 mph 1013.5mb 63f
2:20pm 15 20 mph 1014.2mb 64f
2:10pm 16 20 mph 1014.2mb 64f
2:00pm 15 18 mph 1013.5mb 64f
1:40pm 15 18 mph 1014.6mb 64f
1:30pm 15 18 mph 1013.9mb 64f
1:20pm 16 18 mph 1014.2mb 64f
1:10pm 16 18 mph 1014.9mb 63f
1:00pm 16 17 mph 1014.6mb 63f
12:40pm 16 17 mph 1014.9mb 63f
12:30pm 16 18 mph 1015.2mb 63f
12:20pm 16 17 mph 1014.6mb 63f
12:10pm 15 17 mph 1014.9mb 63f
12:00pm 17 18 mph 1015.6mb 62f
11:40am 16 17 mph 1014.9mb 62f
11:30am 16 18 mph 1014.9mb 62f
11:20am 15 17 mph 1015.6mb 62f
11:10am 15 16 mph 1015.9mb 61f
11:00am 15 16 mph 1015.9mb 62f
8:50am 14 16 mph 1016.3mb 60f
8:40am 13 16 mph 1016.6mb 59f
8:30am 14 17 mph 1015.9mb 58f
8:20am 13 17 mph 1016.6mb 57f
8:10am 11 15 mph 1016.9mb 57f
8:00am 11 17 mph 1015.9mb 56f
7:50am 11 15 mph 1016.9mb 56f
7:40am 10 15 mph 1016.3mb 56f
7:30am 9 15 mph 1015.9mb 55f
7:20am 9 15 mph 1016.6mb 55f
7:10am 10 16 mph 1015.6mb 55f
7:00am 11 16 mph 1016.6mb 55f
6:50am 9 16 mph 1015.9mb 56f
6:40am 9 15 mph 1015.9mb 56f
6:30am 10 17 mph 1016.6mb 56f
6:20am 10 15 mph 1015.6mb 55f
6:10am 8 15 mph 1016.6mb 55f
6:00am 8 14 mph 1015.9mb 55f
5:50am 8 13 mph 1016.6mb 55f
5:40am 7 15 mph 1016.6mb 55f
5:30am 8 15 mph 1015.9mb 55f
5:20am 7 14 mph 1016.6mb 55f
5:10am 8 13 mph 1015.9mb 55f
5:00am 7 14 mph 1016.6mb 55f
4:50am 9 15 mph 1015.9mb 55f
4:40am 8 15 mph 1016.6mb 55f
4:30am 9 17 mph 1016.3mb 55f
4:20am 7 15 mph 1016.3mb 55f
4:10am 10 14 mph 1016.6mb 55f
4:00am 9 17 mph 1016.3mb 55f
3:50am 10 16 mph 1016.6mb 55f
3:40am 7 15 mph 1015.9mb 55f
3:30am 10 16 mph 1016.9mb 55f
3:20am 9 13 mph 1015.9mb 54f
3:10am 7 11 mph 1016.9mb 53f
3:00am 8 13 mph 1016.3mb 53f
2:50am 7 10 mph 1017.3mb 53f
2:40am 9 11 mph 1016.3mb 53f
2:30am 8 13 mph 1016.9mb 52f
2:20am 8 14 mph 1016.6mb 53f
2:10am 10 14 mph 1017.3mb 53f
2:00am 10 15 mph 1016.6mb 54f
1:50am 11 15 mph 1017.3mb 54f
1:40am 10 15 mph 1016.3mb 53f
1:30am 9 15 mph 1016.9mb 53f
1:20am 8 11 mph 1016.3mb 52f
1:10am 9 13 mph 1017.3mb 52f
1:00am 9 14 mph 1016.6mb 52f
12:50am 10 13 mph 1017.3mb 52f
12:40am 9 13 mph 1016.9mb 52f
12:30am 10 13 mph 1017.3mb 51f
12:20am 10 13 mph 1016.9mb 52f
12:10am 8 11 mph 1017.3mb 51f
12:00am 6 10 mph 1017.3mb 51f
Thu 10/19 11:50pm 8 9 mph 1016.6mb 50f
11:40pm 6 8 mph 1017.3mb 49f
11:30pm 6 9 mph 1016.6mb 49f
11:20pm 6 8 mph 1017.3mb 48f
11:10pm 6 8 mph 1016.9mb 48f
11:00pm 6 8 mph 1016.6mb 48f
10:50pm 6 9 mph 1016.9mb 46f
10:40pm 5 6 mph 1016.3mb 42f
10:30pm 3 9 mph 1016.9mb 42f
10:20pm 6 7 mph 1016.3mb 43f
10:10pm 6 8 mph 1016.6mb 42f
10:00pm 5 6 mph 1016.6mb 45f
9:50pm 5 6 mph 1016.6mb 44f
9:40pm 3 8 mph 1016.6mb 45f
9:30pm 3 8 mph 1016.3mb 44f
9:20pm 3 6 mph 1016.6mb 44f
9:10pm 5 5 mph 1015.9mb 44f
9:00pm 3 8 mph 1016.6mb 47f
8:50pm 7 8 mph 1015.9mb 46f
8:40pm 5 6 mph 1016.3mb 44f
8:30pm 6 7 mph 1015.9mb 45f
8:20pm 5 6 mph 1015.9mb 47f
8:10pm 5 7 mph 1015.9mb 47f
8:00pm 6 8 mph 1015.9mb 48f
7:50pm 5 8 mph 1016.3mb 47f
7:40pm 5 6 mph 1015.2mb 47f
7:30pm 5 7 mph 1016.3mb 47f
7:20pm 6 9 mph 1015.6mb 48f
7:10pm 5 9 mph 1015.9mb 48f
7:00pm 6 7 mph 1016.3mb 48f
6:50pm 3 5 mph 1015.6mb 49f
6:40pm 5 7 mph 1016.3mb 50f
5:40pm 7 16 mph 1014.9mb 53f
5:30pm 8 16 mph 1015.2mb 54f
5:20pm 9 17 mph 1015.6mb 55f
5:10pm 13 17 mph 1015.6mb 55f
5:00pm 13 20 mph 1015.2mb 55f
4:50pm 11 22 mph 1014.9mb 55f
4:40pm 11 21 mph 1014.6mb 56f
4:30pm 13 23 mph 1014.6mb 56f
4:20pm 13 24 mph 1014.6mb 56f
4:10pm 15 25 mph 1014.6mb 57f
4:00pm 15 25 mph 1014.6mb 57f
3:50pm 11 23 mph 1014.6mb 58f
3:40pm 14 22 mph 1014.6mb 56f
3:30pm 11 28 mph 1014.6mb 56f
3:20pm 11 23 mph 1014.2mb 56f
3:10pm 15 26 mph 1013.9mb 57f
3:00pm 18 26 mph 1013.9mb 58f
2:50pm 16 25 mph 1013.9mb 59f
2:40pm 11 26 mph 1013.9mb 57f
2:30pm 13 26 mph 1014.2mb 57f
2:20pm 14 28 mph 1013.9mb 57f
2:10pm 13 28 mph 1013.9mb 57f
2:00pm 16 29 mph 1013.9mb 57f
1:50pm 13 29 mph 1013.9mb 56f
1:40pm 14 26 mph 1013.9mb 57f
1:30pm 15 29 mph 1014.2mb 57f
1:20pm 15 28 mph 1014.2mb 58f
1:10pm 22 31 mph 1014.2mb 57f
1:00pm 15 28 mph 1013.9mb 57f
12:50pm 15 30 mph 1013.5mb 57f
12:40pm 16 32 mph 1013.2mb 58f
12:30pm 14 29 mph 1013.2mb 58f
12:20pm 17 29 mph 1013.9mb 58f
12:10pm 18 33 mph 1013.9mb 57f
12:00pm 16 30 mph 1013.9mb 57f
11:50am 17 31 mph 1013.5mb 58f
11:40am 21 33 mph 1012.9mb 58f
11:30am 13 26 mph 1012.5mb 58f
11:20am 16 29 mph 1012.9mb 57f
11:10am 16 29 mph 1012.9mb 57f
11:00am 20 28 mph 1012.9mb 58f
10:50am 16 29 mph 1012.9mb 58f
10:40am 16 32 mph 1012.9mb 57f
10:30am 8 23 mph 1012.9mb 58f
10:20am 17 24 mph 1012.5mb 57f
10:10am 13 25 mph 1012.5mb 57f
10:00am 14 21 mph 1012.2mb 57f
9:50am 15 25 mph 1011.9mb 56f
9:40am 15 23 mph 1011.2mb 56f
9:30am 9 23 mph 1011.9mb 55f
9:20am 16 30 mph 1011.9mb 55f
9:10am 15 23 mph 1010.8mb 54f
9:00am 10 23 mph 1011.5mb 54f
8:50am 8 15 mph 1011.5mb 53f
8:40am 7 14 mph 1011.2mb 52f
8:30am 8 13 mph 1011.5mb 51f
8:20am 8 14 mph 1010.8mb 50f
8:10am 7 13 mph 1011.5mb 49f
8:00am 10 14 mph 1010.5mb 48f
7:50am 9 14 mph 1011.2mb 47f
7:40am 7 13 mph 1010.2mb 47f
7:30am 6 13 mph 1010.8mb 47f
7:20am 8 11 mph 1010.2mb 47f
7:10am 6 10 mph 1010.2mb 46f
7:00am 6 10 mph 1010.2mb 47f
6:50am 7 9 mph 1009.5mb 48f
6:40am 6 10 mph 1010.2mb 50f
6:30am 8 14 mph 1009.1mb 51f
6:20am 8 17 mph 1010.2mb 52f
6:10am 9 18 mph 1009.5mb 52f
6:00am 13 18 mph 1009.1mb 53f
5:50am 9 21 mph 1009.8mb 53f
5:40am 13 21 mph 1008.8mb 54f
5:30am 9 18 mph 1009.5mb 53f
5:20am 11 24 mph 1009.5mb 53f
5:10am 9 18 mph 1008.8mb 53f
5:00am 13 26 mph 1009.5mb 54f
4:50am 11 20 mph 1008.8mb 53f
4:40am 10 18 mph 1008.8mb 53f
4:30am 9 21 mph 1009.5mb 54f
4:20am 13 25 mph 1008.5mb 55f
4:10am 13 22 mph 1008.5mb 54f
4:00am 13 21 mph 1009.1mb 55f
3:50am 14 23 mph 1008.5mb 55f
3:40am 14 23 mph 1008.5mb 55f
3:30am 14 23 mph 1008.8mb 55f
3:20am 14 24 mph 1008.1mb 55f
3:10am 13 25 mph 1007.8mb 55f
3:00am 13 24 mph 1008.5mb 55f
2:50am 11 22 mph 1008.1mb 56f
2:40am 8 23 mph 1007.8mb 56f
2:30am 13 21 mph 1008.5mb 56f
2:20am 10 17 mph 1008.5mb 56f
2:10am 10 21 mph 1008.1mb 56f
2:00am 13 18 mph 1007.5mb 57f
1:50am 13 21 mph 1008.1mb 57f
1:40am 11 20 mph 1008.5mb 57f
1:30am 13 22 mph 1007.8mb 57f
1:20am 10 21 mph 1007.5mb 58f
1:10am 14 22 mph 1007.8mb 58f
1:00am 9 21 mph 1008.1mb 58f
12:50am 14 22 mph 1007.8mb 59f
12:40am 15 24 mph 1006.8mb 60f
12:30am 13 25 mph 1006.8mb 60f
12:20am 9 25 mph 1007.1mb 60f
12:10am 8 21 mph 1007.5mb 60f
12:00am 9 17 mph 1007.1mb 60f
Wed 10/18 11:50pm 14 21 mph 1006.4mb 61f
11:40pm 9 16 mph 1006.4mb 61f
11:30pm 9 17 mph 1007.1mb 61f
11:20pm 11 25 mph 1007.1mb 61f
11:10pm 11 20 mph 1006.4mb 61f
11:00pm 13 25 mph 1005.8mb 61f
10:50pm 14 21 mph 1006.1mb 61f
10:40pm 9 25 mph 1006.4mb 61f
10:30pm 9 22 mph 1006.8mb 60f
10:20pm 15 23 mph 1006.4mb 60f
10:10pm 13 23 mph 1006.1mb 60f
10:00pm 17 25 mph 1006.1mb 60f
9:50pm 14 25 mph 1006.8mb 60f
9:40pm 18 26 mph 1007.1mb 60f
9:30pm 20 28 mph 1007.1mb 60f
9:20pm 18 26 mph 1006.8mb 60f
9:10pm 21 26 mph 1006.4mb 60f
9:00pm 21 28 mph 1006.8mb 61f
8:50pm 20 34 mph 1007.1mb 61f
8:40pm 20 28 mph 1007.5mb 61f
8:30pm 18 32 mph 1007.8mb 61f
8:20pm 21 28 mph 1007.1mb 61f
8:10pm 21 32 mph 1007.1mb 61f
8:00pm 22 31 mph 1006.8mb 61f
7:50pm 20 33 mph 1006.4mb 62f
7:40pm 18 39 mph 1006.8mb 61f
7:30pm 21 36 mph 1007.1mb 61f
7:20pm 23 38 mph 1007.1mb 62f
7:10pm 26 43 mph 1007.1mb 61f
7:00pm 29 40 mph 1007.1mb 62f
6:50pm 24 40 mph 1007.5mb 62f
5:40pm 33 45 mph 1006.1mb 63f
5:30pm 26 41 mph 1006.1mb 63f
5:20pm 25 41 mph 1006.1mb 63f
5:10pm 32 41 mph 1006.1mb 64f
5:00pm 31 41 mph 1006.4mb 64f
4:50pm 30 47 mph 1006.1mb 64f
4:40pm 33 46 mph 1006.8mb 64f
4:30pm 25 41 mph 1007.5mb 64f
4:20pm 29 40 mph 1007.1mb 64f
4:10pm 29 36 mph 1007.1mb 65f
4:00pm 26 34 mph 1006.8mb 65f
3:50pm 29 39 mph 1006.8mb 65f
3:40pm 24 39 mph 1007.8mb 65f
3:30pm 24 34 mph 1008.5mb 65f
3:20pm 25 34 mph 1008.5mb 66f
3:10pm 21 38 mph 1008.1mb 66f
3:00pm 26 39 mph 1008.8mb 67f
2:50pm 21 32 mph 1008.8mb 67f
2:40pm 24 33 mph 1008.5mb 66f
2:30pm 24 36 mph 1008.5mb 67f
2:20pm 25 38 mph 1009.1mb 67f
2:10pm 24 33 mph 1009.5mb 67f
2:00pm 24 37 mph 1009.1mb 67f
1:50pm 23 31 mph 1009.8mb 67f
1:40pm 20 31 mph 1010.2mb 66f
1:30pm 22 32 mph 1010.5mb 65f
1:20pm 20 30 mph 1010.2mb 66f
1:10pm 23 30 mph 1010.2mb 65f
1:00pm 21 25 mph 1010.8mb 64f
12:50pm 18 25 mph 1011.5mb 63f
12:40pm 16 23 mph 1011.2mb 63f
12:30pm 20 23 mph 1010.8mb 63f
12:20pm 18 25 mph 1011.5mb 63f
12:10pm 18 24 mph 1011.9mb 62f
12:00pm 20 25 mph 1011.9mb 63f
11:50am 18 25 mph 1011.5mb 63f
11:40am 15 21 mph 1011.5mb 63f
11:30am 17 22 mph 1012.2mb 63f
11:20am 15 21 mph 1012.5mb 62f
11:10am 16 21 mph 1012.5mb 62f
11:00am 15 20 mph 1012.5mb 62f
10:50am 14 20 mph 1012.5mb 61f
10:40am 15 21 mph 1012.5mb 61f
10:30am 16 21 mph 1012.2mb 61f
10:20am 14 20 mph 1012.5mb 61f
10:10am 13 17 mph 1012.5mb 61f
10:00am 14 21 mph 1013.2mb 60f
9:50am 16 21 mph 1013.2mb 60f
9:40am 16 20 mph 1012.9mb 59f
9:30am 17 22 mph 1012.5mb 58f
9:20am 17 23 mph 1012.9mb 58f
9:10am 17 21 mph 1013.5mb 58f
9:00am 14 20 mph 1013.2mb 57f
8:50am 16 21 mph 1012.9mb 57f
8:40am 15 22 mph 1013.9mb 57f
8:30am 17 23 mph 1013.9mb 57f
8:20am 18 22 mph 1013.2mb 56f
8:10am 16 22 mph 1014.2mb 56f
8:00am 15 21 mph 1013.9mb 56f
7:50am 17 21 mph 1013.5mb 56f
7:40am 15 20 mph 1014.6mb 56f
7:30am 15 21 mph 1014.2mb 56f
7:20am 16 20 mph 1013.9mb 56f
7:10am 17 20 mph 1014.6mb 56f
7:00am 16 21 mph 1013.9mb 56f
6:50am 15 20 mph 1014.2mb 56f
6:40am 15 20 mph 1014.6mb 56f
6:30am 16 21 mph 1013.9mb 56f
6:20am 15 20 mph 1014.6mb 56f
6:10am 15 18 mph 1014.6mb 55f
6:00am 14 18 mph 1013.9mb 55f
5:50am 14 18 mph 1014.6mb 56f
5:40am 14 18 mph 1014.2mb 55f
5:30am 14 20 mph 1014.2mb 56f
5:20am 14 20 mph 1014.6mb 56f
5:10am 14 20 mph 1013.9mb 56f
5:00am 15 18 mph 1014.6mb 55f
4:50am 13 20 mph 1014.6mb 55f
4:40am 15 20 mph 1013.9mb 55f
4:30am 17 20 mph 1014.9mb 55f
4:20am 14 20 mph 1014.2mb 56f
4:10am 16 23 mph 1014.2mb 56f
4:00am 16 21 mph 1014.6mb 56f
3:50am 15 21 mph 1013.9mb 56f
3:40am 15 21 mph 1014.6mb 56f
3:30am 17 21 mph 1014.6mb 56f
3:20am 15 20 mph 1013.9mb 56f
3:10am 15 22 mph 1014.6mb 56f
3:00am 15 22 mph 1014.6mb 56f
2:50am 15 21 mph 1014.6mb 56f
2:40am 15 20 mph 1014.9mb 56f
2:30am 15 18 mph 1014.6mb 56f
2:20am 13 17 mph 1015.2mb 56f
2:10am 11 16 mph 1015.2mb 56f
2:00am 14 17 mph 1014.9mb 56f
1:50am 13 17 mph 1015.2mb 55f
1:40am 13 16 mph 1014.6mb 55f
1:30am 14 16 mph 1015.2mb 55f
1:20am 11 16 mph 1015.2mb 55f
1:10am 14 15 mph 1014.6mb 56f
1:00am 9 15 mph 1015.2mb 55f
12:50am 11 15 mph 1014.9mb 55f
12:40am 11 14 mph 1015.6mb 55f
12:30am 9 14 mph 1015.6mb 55f
12:20am 10 14 mph 1015.2mb 55f
12:10am 9 13 mph 1015.9mb 55f
12:00am 10 15 mph 1014.9mb 55f
Tue 10/17 11:50pm 11 15 mph 1015.6mb 55f
11:40pm 9 11 mph 1015.2mb 55f
11:30pm 8 11 mph 1015.6mb 55f
11:20pm 8 10 mph 1015.9mb 54f
11:10pm 8 10 mph 1015.2mb 54f
11:00pm 5 7 mph 1016.3mb 52f
10:50pm 5 8 mph 1015.6mb 53f
10:40pm 8 9 mph 1016.3mb 53f
10:30pm 6 10 mph 1015.9mb 53f
10:20pm 7 10 mph 1015.9mb 54f
10:10pm 7 11 mph 1016.3mb 54f
10:00pm 8 11 mph 1015.6mb 55f
9:50pm 10 13 mph 1016.6mb 56f
9:40pm 13 14 mph 1015.6mb 56f
9:30pm 11 14 mph 1016.6mb 56f
9:20pm 11 14 mph 1015.6mb 56f
9:10pm 10 13 mph 1016.3mb 55f
9:00pm 9 11 mph 1015.9mb 55f
8:50pm 9 11 mph 1016.3mb 53f
8:40pm 7 9 mph 1016.3mb 53f
8:30pm 6 9 mph 1016.3mb 51f
8:20pm 5 8 mph 1016.3mb 47f
8:10pm 3 8 mph 1015.9mb 49f
8:00pm 7 8 mph 1016.6mb 51f
7:50pm 7 8 mph 1015.9mb 48f
7:40pm 6 8 mph 1016.6mb 49f
7:30pm 3 6 mph 1015.6mb 48f
7:20pm 5 6 mph 1016.6mb 49f
7:10pm 5 5 mph 1015.9mb 47f
7:00pm 1 2 mph 1015.6mb 46f
6:50pm  -  2 mph 1015.9mb 46f
6:40pm 2 2 mph 1015.2mb 47f
5:40pm 2 3 mph 1015.6mb 50f
5:30pm 2 5 mph 1015.6mb 51f
5:20pm 2 7 mph 1015.2mb 53f
5:10pm 5 8 mph 1014.9mb 53f
5:00pm 6 10 mph 1014.6mb 55f
4:50pm 7 11 mph 1014.6mb 55f
4:40pm 6 11 mph 1014.2mb 56f
4:30pm 7 16 mph 1013.9mb 56f
4:20pm 8 16 mph 1014.2mb 56f
4:10pm 9 15 mph 1014.2mb 56f
4:00pm 10 16 mph 1014.2mb 57f
3:50pm 8 15 mph 1014.2mb 57f
3:40pm 9 16 mph 1014.2mb 57f
3:30pm 10 16 mph 1014.6mb 58f
3:20pm 8 18 mph 1014.6mb 57f
3:10pm 11 17 mph 1014.6mb 57f
3:00pm 9 18 mph 1014.6mb 58f
2:50pm 14 18 mph 1014.2mb 57f